ASA1461 LIMC-LIPZ
Flight info
| Callsign | ASA1461 |
|---|---|
| Flight time | 0h 36m |
| Altitude | 26000 |
| Route | OSKOR DCT NEVNI DCT NOBMI DCT ELTAR DCT IDREK DCT ADOSA/N0380F190 L612 ALBET |
| Aircraft | B739/M-SDE2E3FGHIRWXY/LB1 |
Departure
| Time | 2026-05-06 13:28 |
|---|---|
| Airport | Milan Malpensa International Airport (LIMC) |
Arrival
| Time | 2026-05-06 14:05 |
|---|---|
| Airport | Venice Marco Polo Airport (LIPZ) |
| Time | Latitude | Longitude | Altitude | Speed | Heading |
|---|---|---|---|---|---|
| 2026-05-06 12:51 | 45.62252 | 8.72042 | 776 ft | 0 kts | 78° |
| 2026-05-06 13:22 | 45.62255 | 8.72059 | 776 ft | 5 kts | 77° |
| 2026-05-06 13:22 | 45.62248 | 8.72148 | 776 ft | 13 kts | 136° |
| 2026-05-06 13:23 | 45.62170 | 8.72272 | 776 ft | 19 kts | 159° |
| 2026-05-06 13:23 | 45.62018 | 8.72318 | 776 ft | 24 kts | 170° |
| 2026-05-06 13:23 | 45.61872 | 8.72313 | 776 ft | 17 kts | 239° |
| 2026-05-06 13:23 | 45.61962 | 8.72228 | 776 ft | 21 kts | 346° |
| 2026-05-06 13:24 | 45.62124 | 8.72175 | 776 ft | 24 kts | 349° |
| 2026-05-06 13:24 | 45.62215 | 8.72271 | 776 ft | 18 kts | 87° |
| 2026-05-06 13:24 | 45.62242 | 8.72453 | 776 ft | 20 kts | 78° |
| 2026-05-06 13:24 | 45.62275 | 8.72691 | 776 ft | 27 kts | 79° |
| 2026-05-06 13:25 | 45.62309 | 8.72958 | 776 ft | 24 kts | 89° |
| 2026-05-06 13:25 | 45.62196 | 8.73054 | 776 ft | 23 kts | 169° |
| 2026-05-06 13:25 | 45.62021 | 8.73102 | 776 ft | 28 kts | 168° |
| 2026-05-06 13:25 | 45.61812 | 8.73159 | 776 ft | 30 kts | 169° |
| 2026-05-06 13:26 | 45.61682 | 8.73332 | 776 ft | 23 kts | 122° |
| 2026-05-06 13:26 | 45.61605 | 8.73500 | 776 ft | 17 kts | 120° |
| 2026-05-06 13:26 | 45.61588 | 8.73639 | 776 ft | 13 kts | 80° |
| 2026-05-06 13:26 | 45.61631 | 8.73730 | 776 ft | 10 kts | 8° |
| 2026-05-06 13:27 | 45.61652 | 8.73728 | 776 ft | 0 kts | 351° |
| 2026-05-06 13:27 | 45.61662 | 8.73726 | 776 ft | 7 kts | 350° |
| 2026-05-06 13:28 | 45.62103 | 8.73607 | 777 ft | 120 kts | 350° |
| 2026-05-06 13:28 | 45.63182 | 8.73310 | 1141 ft | 182 kts | 352° |
| 2026-05-06 13:28 | 45.64548 | 8.73265 | 2047 ft | 215 kts | 11° |
| 2026-05-06 13:28 | 45.65884 | 8.74065 | 3234 ft | 221 kts | 39° |
| 2026-05-06 13:29 | 45.66734 | 8.75931 | 4123 ft | 241 kts | 79° |
| 2026-05-06 13:29 | 45.66582 | 8.78359 | 5076 ft | 260 kts | 115° |
| 2026-05-06 13:29 | 45.65402 | 8.80259 | 6244 ft | 269 kts | 149° |
| 2026-05-06 13:29 | 45.63741 | 8.81446 | 7515 ft | 277 kts | 153° |
| 2026-05-06 13:30 | 45.62255 | 8.83217 | 8750 ft | 288 kts | 127° |
| 2026-05-06 13:30 | 45.61558 | 8.85822 | 9957 ft | 293 kts | 95° |
| 2026-05-06 13:30 | 45.61858 | 8.88690 | 10944 ft | 306 kts | 66° |
| 2026-05-06 13:30 | 45.63166 | 8.91196 | 11551 ft | 331 kts | 37° |
| 2026-05-06 13:31 | 45.65271 | 8.92527 | 12533 ft | 342 kts | 8° |
| 2026-05-06 13:31 | 45.67627 | 8.92376 | 13713 ft | 346 kts | 348° |
| 2026-05-06 13:31 | 45.70029 | 8.91858 | 14888 ft | 354 kts | 357° |
| 2026-05-06 13:31 | 45.72425 | 8.92496 | 15986 ft | 364 kts | 21° |
| 2026-05-06 13:32 | 45.74494 | 8.94597 | 17040 ft | 376 kts | 46° |
| 2026-05-06 13:32 | 45.75814 | 8.97838 | 18046 ft | 388 kts | 69° |
| 2026-05-06 13:32 | 45.76546 | 9.01557 | 19017 ft | 395 kts | 72° |
| 2026-05-06 13:32 | 45.77214 | 9.05397 | 19913 ft | 405 kts | 81° |
| 2026-05-06 13:33 | 45.77209 | 9.09412 | 20787 ft | 413 kts | 95° |
| 2026-05-06 13:33 | 45.76839 | 9.13513 | 21632 ft | 421 kts | 97° |
| 2026-05-06 13:33 | 45.76458 | 9.17740 | 22458 ft | 428 kts | 96° |
| 2026-05-06 13:33 | 45.76106 | 9.21987 | 23249 ft | 435 kts | 96° |
| 2026-05-06 13:34 | 45.75742 | 9.26299 | 23852 ft | 438 kts | 96° |
| 2026-05-06 13:34 | 45.75363 | 9.30648 | 23885 ft | 445 kts | 96° |
| 2026-05-06 13:34 | 45.74975 | 9.35022 | 23855 ft | 443 kts | 96° |
| 2026-05-06 13:34 | 45.74585 | 9.39393 | 23862 ft | 441 kts | 96° |
| 2026-05-06 13:35 | 45.74197 | 9.43723 | 23866 ft | 442 kts | 96° |
| 2026-05-06 13:35 | 45.73802 | 9.48098 | 23870 ft | 442 kts | 96° |
| 2026-05-06 13:35 | 45.73407 | 9.52441 | 23875 ft | 442 kts | 96° |
| 2026-05-06 13:35 | 45.73008 | 9.56807 | 23881 ft | 442 kts | 96° |
| 2026-05-06 13:36 | 45.72609 | 9.61153 | 23885 ft | 442 kts | 96° |
| 2026-05-06 13:36 | 45.72209 | 9.65490 | 23885 ft | 442 kts | 97° |
| 2026-05-06 13:36 | 45.71807 | 9.69832 | 23887 ft | 442 kts | 97° |
| 2026-05-06 13:36 | 45.71399 | 9.74208 | 23886 ft | 442 kts | 97° |
| 2026-05-06 13:37 | 45.70995 | 9.78534 | 23885 ft | 442 kts | 97° |
| 2026-05-06 13:37 | 45.70588 | 9.82866 | 23885 ft | 442 kts | 97° |
| 2026-05-06 13:37 | 45.70172 | 9.87275 | 23893 ft | 442 kts | 97° |
| 2026-05-06 13:37 | 45.69761 | 9.91607 | 23915 ft | 442 kts | 97° |
| 2026-05-06 13:38 | 45.69347 | 9.95959 | 23936 ft | 441 kts | 97° |
| 2026-05-06 13:38 | 45.68932 | 10.00296 | 23957 ft | 441 kts | 97° |
| 2026-05-06 13:38 | 45.68518 | 10.04606 | 23978 ft | 441 kts | 97° |
| 2026-05-06 13:38 | 45.68102 | 10.08934 | 23997 ft | 441 kts | 97° |
| 2026-05-06 13:39 | 45.67680 | 10.13290 | 23981 ft | 441 kts | 97° |
| 2026-05-06 13:39 | 45.67260 | 10.17609 | 23960 ft | 442 kts | 97° |
| 2026-05-06 13:39 | 45.66835 | 10.21972 | 23938 ft | 441 kts | 97° |
| 2026-05-06 13:39 | 45.66411 | 10.26296 | 23918 ft | 441 kts | 97° |
| 2026-05-06 13:40 | 45.65987 | 10.30609 | 23897 ft | 442 kts | 97° |
| 2026-05-06 13:40 | 45.65559 | 10.34946 | 23883 ft | 441 kts | 97° |
| 2026-05-06 13:40 | 45.65132 | 10.39290 | 23884 ft | 441 kts | 96° |
| 2026-05-06 13:40 | 45.64821 | 10.43674 | 23884 ft | 440 kts | 91° |
| 2026-05-06 13:41 | 45.64785 | 10.48011 | 23885 ft | 440 kts | 88° |
| 2026-05-06 13:41 | 45.64806 | 10.52391 | 23885 ft | 440 kts | 88° |
| 2026-05-06 13:41 | 45.64792 | 10.56760 | 23885 ft | 440 kts | 88° |
| 2026-05-06 13:41 | 45.64763 | 10.61116 | 23886 ft | 440 kts | 88° |
| 2026-05-06 13:42 | 45.64737 | 10.65472 | 23885 ft | 440 kts | 89° |
| 2026-05-06 13:42 | 45.64707 | 10.69871 | 23884 ft | 440 kts | 89° |
| 2026-05-06 13:42 | 45.64674 | 10.74208 | 23885 ft | 440 kts | 89° |
| 2026-05-06 13:42 | 45.64640 | 10.78543 | 23884 ft | 440 kts | 89° |
| 2026-05-06 13:43 | 45.64605 | 10.82906 | 23884 ft | 441 kts | 89° |
| 2026-05-06 13:43 | 45.64571 | 10.87306 | 23884 ft | 442 kts | 89° |
| 2026-05-06 13:43 | 45.64537 | 10.91704 | 23884 ft | 443 kts | 89° |
| 2026-05-06 13:43 | 45.64487 | 10.96069 | 23884 ft | 444 kts | 91° |
| 2026-05-06 13:44 | 45.64120 | 11.00439 | 23887 ft | 447 kts | 100° |
| 2026-05-06 13:44 | 45.63219 | 11.04696 | 23887 ft | 449 kts | 112° |
| 2026-05-06 13:44 | 45.61750 | 11.08615 | 23888 ft | 449 kts | 123° |
| 2026-05-06 13:44 | 45.60045 | 11.12328 | 23884 ft | 449 kts | 124° |
| 2026-05-06 13:45 | 45.58335 | 11.16086 | 23884 ft | 449 kts | 123° |
| 2026-05-06 13:45 | 45.55007 | 11.23578 | 23604 ft | 448 kts | 123° |
| 2026-05-06 13:45 | 45.53347 | 11.27282 | 23064 ft | 443 kts | 123° |
| 2026-05-06 13:46 | 45.51704 | 11.30934 | 22537 ft | 438 kts | 123° |
| 2026-05-06 13:46 | 45.50068 | 11.34564 | 21996 ft | 433 kts | 123° |
| 2026-05-06 13:46 | 45.48443 | 11.38166 | 21463 ft | 428 kts | 123° |
| 2026-05-06 13:46 | 45.46858 | 11.41671 | 20934 ft | 423 kts | 124° |
| 2026-05-06 13:47 | 45.45280 | 11.45157 | 20411 ft | 418 kts | 124° |
| 2026-05-06 13:47 | 45.43716 | 11.48568 | 19890 ft | 413 kts | 125° |
| 2026-05-06 13:47 | 45.42012 | 11.51816 | 19363 ft | 407 kts | 131° |
| 2026-05-06 13:47 | 45.40138 | 11.54824 | 18837 ft | 401 kts | 134° |
| 2026-05-06 13:48 | 45.38288 | 11.57745 | 18315 ft | 397 kts | 133° |
| 2026-05-06 13:48 | 45.36507 | 11.60640 | 17804 ft | 393 kts | 130° |
| 2026-05-06 13:48 | 45.35115 | 11.63958 | 17262 ft | 391 kts | 111° |
| 2026-05-06 13:48 | 45.34585 | 11.67724 | 16744 ft | 387 kts | 93° |
| 2026-05-06 13:49 | 45.34648 | 11.71511 | 16229 ft | 382 kts | 86° |
| 2026-05-06 13:49 | 45.34829 | 11.75272 | 15709 ft | 378 kts | 86° |
| 2026-05-06 13:49 | 45.34959 | 11.78932 | 15200 ft | 374 kts | 89° |
| 2026-05-06 13:49 | 45.34593 | 11.82547 | 14672 ft | 370 kts | 109° |
| 2026-05-06 13:50 | 45.33541 | 11.85850 | 14184 ft | 364 kts | 120° |
| 2026-05-06 13:50 | 45.32116 | 11.88772 | 13672 ft | 358 kts | 133° |
| 2026-05-06 13:50 | 45.30176 | 11.90874 | 13130 ft | 352 kts | 156° |
| 2026-05-06 13:50 | 45.27848 | 11.91613 | 12605 ft | 345 kts | 178° |
| 2026-05-06 13:51 | 45.25452 | 11.91687 | 12076 ft | 342 kts | 182° |
| 2026-05-06 13:51 | 45.23126 | 11.91187 | 11528 ft | 339 kts | 200° |
| 2026-05-06 13:51 | 45.21175 | 11.89448 | 10994 ft | 334 kts | 224° |
| 2026-05-06 13:51 | 45.19624 | 11.87049 | 10495 ft | 331 kts | 230° |
| 2026-05-06 13:52 | 45.18417 | 11.84286 | 9943 ft | 329 kts | 248° |
| 2026-05-06 13:52 | 45.17725 | 11.81212 | 9435 ft | 327 kts | 254° |
| 2026-05-06 13:52 | 45.16933 | 11.78225 | 8912 ft | 324 kts | 241° |
| 2026-05-06 13:52 | 45.15598 | 11.75724 | 8404 ft | 322 kts | 227° |
| 2026-05-06 13:53 | 45.13992 | 11.73556 | 7895 ft | 319 kts | 217° |
| 2026-05-06 13:53 | 45.12018 | 11.72215 | 7362 ft | 317 kts | 192° |
| 2026-05-06 13:53 | 45.09833 | 11.72343 | 6851 ft | 315 kts | 163° |
| 2026-05-06 13:53 | 45.07912 | 11.73705 | 6388 ft | 312 kts | 149° |
| 2026-05-06 13:54 | 45.06124 | 11.75449 | 5889 ft | 311 kts | 139° |
| 2026-05-06 13:54 | 45.04893 | 11.77889 | 5368 ft | 310 kts | 112° |
| 2026-05-06 13:54 | 45.04597 | 11.80868 | 4962 ft | 304 kts | 87° |
| 2026-05-06 13:54 | 45.04751 | 11.83829 | 4982 ft | 305 kts | 83° |
| 2026-05-06 13:55 | 45.05434 | 11.86700 | 4978 ft | 311 kts | 59° |
| 2026-05-06 13:55 | 45.06935 | 11.88786 | 4823 ft | 299 kts | 31° |
| 2026-05-06 13:55 | 45.08772 | 11.90039 | 4708 ft | 286 kts | 24° |
| 2026-05-06 13:55 | 45.10645 | 11.90826 | 4505 ft | 278 kts | 6° |
| 2026-05-06 13:56 | 45.12529 | 11.90522 | 4272 ft | 271 kts | 346° |
| 2026-05-06 13:56 | 45.14364 | 11.90115 | 3954 ft | 267 kts | 4° |
| 2026-05-06 13:56 | 45.16071 | 11.90963 | 3555 ft | 265 kts | 38° |
| 2026-05-06 13:56 | 45.17327 | 11.92833 | 3254 ft | 261 kts | 49° |
| 2026-05-06 13:57 | 45.18589 | 11.94614 | 3132 ft | 250 kts | 43° |
| 2026-05-06 13:57 | 45.19848 | 11.96219 | 3039 ft | 240 kts | 43° |
| 2026-05-06 13:57 | 45.21061 | 11.97755 | 2986 ft | 228 kts | 42° |
| 2026-05-06 13:57 | 45.22213 | 11.99200 | 2996 ft | 218 kts | 42° |
| 2026-05-06 13:58 | 45.23357 | 12.00628 | 2994 ft | 220 kts | 42° |
| 2026-05-06 13:58 | 45.24510 | 12.02056 | 2994 ft | 221 kts | 42° |
| 2026-05-06 13:58 | 45.25657 | 12.03516 | 2993 ft | 219 kts | 42° |
| 2026-05-06 13:58 | 45.26789 | 12.04912 | 2991 ft | 212 kts | 42° |
| 2026-05-06 13:59 | 45.27894 | 12.06282 | 2998 ft | 210 kts | 43° |
| 2026-05-06 13:59 | 45.28980 | 12.07653 | 2993 ft | 210 kts | 43° |
| 2026-05-06 13:59 | 45.30067 | 12.09033 | 2990 ft | 211 kts | 43° |
| 2026-05-06 13:59 | 45.31164 | 12.10427 | 2991 ft | 210 kts | 43° |
| 2026-05-06 14:00 | 45.32246 | 12.11804 | 2992 ft | 211 kts | 43° |
| 2026-05-06 14:00 | 45.33346 | 12.13206 | 2990 ft | 211 kts | 43° |
| 2026-05-06 14:00 | 45.34445 | 12.14607 | 2993 ft | 211 kts | 43° |
| 2026-05-06 14:00 | 45.35528 | 12.15988 | 2990 ft | 210 kts | 43° |
| 2026-05-06 14:01 | 45.36621 | 12.17383 | 2992 ft | 212 kts | 43° |
| 2026-05-06 14:01 | 45.37716 | 12.18780 | 2991 ft | 213 kts | 43° |
| 2026-05-06 14:01 | 45.38831 | 12.20205 | 2823 ft | 216 kts | 43° |
| 2026-05-06 14:01 | 45.39948 | 12.21633 | 2533 ft | 215 kts | 43° |
| 2026-05-06 14:02 | 45.41037 | 12.23026 | 2255 ft | 212 kts | 44° |
| 2026-05-06 14:02 | 45.42117 | 12.24409 | 1967 ft | 206 kts | 44° |
| 2026-05-06 14:02 | 45.43173 | 12.25761 | 1680 ft | 200 kts | 44° |
| 2026-05-06 14:02 | 45.44170 | 12.27039 | 1411 ft | 187 kts | 44° |
| 2026-05-06 14:03 | 45.45091 | 12.28220 | 1175 ft | 167 kts | 44° |
| 2026-05-06 14:03 | 45.45900 | 12.29256 | 967 ft | 145 kts | 45° |
| 2026-05-06 14:03 | 45.46591 | 12.30143 | 776 ft | 122 kts | 45° |
| 2026-05-06 14:03 | 45.47208 | 12.30938 | 637 ft | 120 kts | 45° |
| 2026-05-06 14:04 | 45.47820 | 12.31726 | 460 ft | 118 kts | 45° |
| 2026-05-06 14:04 | 45.48433 | 12.32512 | 300 ft | 116 kts | 46° |
| 2026-05-06 14:04 | 45.49022 | 12.33265 | 154 ft | 115 kts | 46° |
| 2026-05-06 14:04 | 45.49624 | 12.34033 | 15 ft | 113 kts | 46° |
| 2026-05-06 14:05 | 45.50089 | 12.34661 | 10 ft | 65 kts | 43° |
| 2026-05-06 14:05 | 45.50353 | 12.34964 | 10 ft | 40 kts | 40° |
| 2026-05-06 14:05 | 45.50544 | 12.35198 | 10 ft | 33 kts | 42° |
| 2026-05-06 14:05 | 45.50727 | 12.35441 | 13 ft | 40 kts | 41° |
| 2026-05-06 14:06 | 45.50903 | 12.35568 | 13 ft | 16 kts | 4° |
| 2026-05-06 14:06 | 45.50988 | 12.35526 | 13 ft | 2 kts | 288° |
| 2026-05-06 14:06 | 45.50988 | 12.35525 | 13 ft | 0 kts | 287° |
| 2026-05-06 14:07 | 45.50989 | 12.35520 | 13 ft | 2 kts | 286° |
| 2026-05-06 14:08 | 45.50990 | 12.35428 | 13 ft | 18 kts | 260° |
| 2026-05-06 14:08 | 45.50960 | 12.35243 | 11 ft | 17 kts | 250° |
| 2026-05-06 14:08 | 45.50890 | 12.35122 | 9 ft | 15 kts | 223° |
| 2026-05-06 14:08 | 45.50809 | 12.35016 | 10 ft | 16 kts | 221° |
| 2026-05-06 14:09 | 45.50722 | 12.34904 | 8 ft | 18 kts | 221° |
| 2026-05-06 14:09 | 45.50666 | 12.34832 | 6 ft | 0 kts | 222° |
| 2026-05-06 14:09 | 45.50666 | 12.34831 | 6 ft | 0 kts | 222° |
| 2026-05-06 14:09 | 45.50617 | 12.34764 | 7 ft | 21 kts | 225° |
| 2026-05-06 14:10 | 45.50505 | 12.34619 | 9 ft | 18 kts | 243° |
| 2026-05-06 14:10 | 45.50554 | 12.34480 | 9 ft | 18 kts | 309° |
| 2026-05-06 14:10 | 45.50510 | 12.34328 | 9 ft | 19 kts | 216° |
| 2026-05-06 14:10 | 45.50489 | 12.34206 | 9 ft | 0 kts | 267° |